ME50 weather

CLOSED Cross Lake Seaplane Base
Sinclair, Maine, United States

Public forecast

Using degrees Fahrenheit for public forecast. Weather courtesy of forecast.io.

Closest aviation weather report (METAR) to Cross Lake Seaplane Base

Closest report is Northern Aroostook Regional Airport, 9.1 nm (16.9 km) N. Retrieved 2020/07/07 22:53 UTC (17 minutes ago):

KFVE 072253Z AUTO 15010KT 10SM FEW120 23/13 A3001 RMK AO2 SLP158 T02330133

Closest aviation forecast (TAF) to Cross Lake Seaplane Base

Closest forecast is Northern Aroostook Regional Airport, 9.1 nm (16.9 km) N. Retrieved 2020/07/07 18:24 UTC (5 hours ago):

TAF KFVE 071722Z 0718/0818 17007KT P6SM SCT060 FM080500 18009KT P6SM VCSH BKN040 FM080600 17008KT P6SM -SHRA OVC024 FM080800 17008KT P6SM -SHRA OVC013 FM081000 18008KT 3SM -SHRA OVC005